createdAt,value
2019-03-03T00:08:50.616Z,21.3
2019-03-03T00:18:54.140Z,21.3
2019-03-03T00:28:57.688Z,21.3
2019-03-03T00:39:01.199Z,21.3
2019-03-03T00:49:04.704Z,21.3
2019-03-03T00:59:08.236Z,21.2
2019-03-03T01:09:11.719Z,21.3
2019-03-03T01:19:15.225Z,21.3
2019-03-03T01:29:18.746Z,21.2
2019-03-03T01:39:22.303Z,21.2
2019-03-03T01:49:25.826Z,21.2
2019-03-03T01:59:29.334Z,21.2
2019-03-03T02:09:32.824Z,21.2
2019-03-03T02:19:36.333Z,21.2
2019-03-03T02:29:39.830Z,21.2
2019-03-03T02:39:43.358Z,21.2
2019-03-03T02:49:46.904Z,21.1
2019-03-03T02:59:50.402Z,21.1
2019-03-03T03:09:53.910Z,21.1
2019-03-03T03:19:57.451Z,21.1
2019-03-03T03:30:01.021Z,21.1
2019-03-03T03:40:04.554Z,21.1
2019-03-03T03:50:08.067Z,21
2019-03-03T04:00:11.609Z,21.1
2019-03-03T04:10:15.116Z,21.1
2019-03-03T04:20:18.647Z,21.1
2019-03-03T04:30:22.188Z,21.1
2019-03-03T04:40:25.720Z,21.1
2019-03-03T04:50:29.215Z,21.1
2019-03-03T05:00:32.734Z,21
2019-03-03T05:10:36.254Z,21.1
2019-03-03T05:20:39.772Z,21
2019-03-03T05:30:43.289Z,21
2019-03-03T05:40:46.806Z,21
2019-03-03T05:50:50.338Z,21
2019-03-03T06:00:53.850Z,21.1
2019-03-03T06:10:57.370Z,21.3
2019-03-03T06:21:00.886Z,21.4
2019-03-03T06:31:04.559Z,21.6
2019-03-03T06:41:08.066Z,21.6
2019-03-03T06:51:13.081Z,21.7
2019-03-03T07:01:16.604Z,21.8
2019-03-03T07:11:20.096Z,21.8
2019-03-03T07:21:23.619Z,21.9
2019-03-03T07:31:27.156Z,22
2019-03-03T07:41:30.633Z,22
2019-03-03T07:51:34.145Z,22.1
2019-03-03T08:01:37.652Z,22.1
2019-03-03T08:11:41.152Z,22.1
2019-03-03T08:21:44.686Z,22.2
2019-03-03T08:31:48.160Z,22.2
2019-03-03T08:41:51.697Z,22.2
2019-03-03T08:51:55.215Z,22.2
2019-03-03T09:01:58.713Z,22.2
2019-03-03T09:12:02.196Z,22.2
2019-03-03T09:22:05.694Z,22.3
2019-03-03T09:32:09.213Z,22.3
2019-03-03T09:42:12.710Z,22.3
2019-03-03T09:52:16.225Z,22.4
2019-03-03T10:02:19.749Z,22.4
2019-03-03T10:12:23.222Z,22.4
2019-03-03T10:22:26.700Z,22.4
2019-03-03T10:32:30.185Z,22.4
2019-03-03T10:42:33.692Z,22.4
2019-03-03T10:52:37.195Z,22.3
2019-03-03T11:02:40.722Z,22.3
2019-03-03T11:12:44.220Z,22.3
2019-03-03T11:22:47.719Z,22.4
2019-03-03T11:32:51.204Z,22.4
2019-03-03T11:42:54.720Z,22.4
2019-03-03T11:52:58.255Z,22.5
2019-03-03T12:03:01.758Z,22.6
2019-03-03T12:13:05.299Z,22.6
2019-03-03T12:23:08.765Z,22.5
2019-03-03T12:33:12.290Z,22.6
2019-03-03T12:43:15.807Z,22.6
2019-03-03T12:53:19.342Z,22.5
2019-03-03T13:03:22.867Z,22.6
2019-03-03T13:13:26.372Z,22.5
2019-03-03T13:23:29.868Z,22.4
2019-03-03T13:33:33.381Z,22.3
2019-03-03T13:43:37.855Z,22.4
2019-03-03T13:53:41.362Z,22.5
2019-03-03T14:03:44.911Z,22.5
2019-03-03T14:13:48.443Z,22.5
2019-03-03T14:23:51.921Z,22.5
2019-03-03T14:33:55.455Z,22.5
2019-03-03T14:43:58.955Z,22.5
2019-03-03T14:54:02.471Z,22.4
2019-03-03T15:04:05.974Z,22.5
2019-03-03T15:14:09.526Z,22.5
2019-03-03T15:24:13.026Z,22.4
2019-03-03T15:34:16.523Z,22.4
2019-03-03T15:44:20.012Z,22.4
2019-03-03T15:54:23.512Z,22.4
2019-03-03T16:04:27.019Z,22.3
2019-03-03T16:14:30.530Z,22.3
2019-03-03T16:24:34.033Z,22.3
2019-03-03T16:34:37.515Z,22.2
2019-03-03T16:44:41.034Z,22.2
2019-03-03T16:54:44.533Z,22.1
2019-03-03T17:04:48.043Z,22.1
2019-03-03T17:14:51.516Z,22.1
2019-03-03T17:24:54.982Z,22.1
2019-03-03T17:34:58.463Z,22.1
2019-03-03T17:45:01.954Z,22.1
2019-03-03T17:55:05.479Z,22.1
2019-03-03T18:05:08.962Z,22.1
2019-03-03T18:15:12.477Z,22.1
2019-03-03T18:25:15.983Z,22
2019-03-03T18:35:19.458Z,22
2019-03-03T18:45:23.018Z,22
2019-03-03T18:55:26.576Z,22
2019-03-03T19:05:30.059Z,22
2019-03-03T19:15:33.581Z,21.9
2019-03-03T19:25:37.072Z,21.9
2019-03-03T19:35:40.599Z,21.9
2019-03-03T19:45:44.122Z,21.9
2019-03-03T19:55:47.643Z,21.9
2019-03-03T20:05:51.169Z,21.9
2019-03-03T20:15:54.698Z,21.9
2019-03-03T20:25:58.213Z,21.9
2019-03-03T20:36:01.734Z,21.9
2019-03-03T20:46:05.253Z,21.9
2019-03-03T20:56:08.740Z,21.9
2019-03-03T21:06:12.270Z,21.8
2019-03-03T21:16:15.802Z,21.8
2019-03-03T21:26:19.310Z,21.8
2019-03-03T21:36:22.839Z,21.9
2019-03-03T21:46:26.386Z,21.9
2019-03-03T21:56:29.907Z,21.9
2019-03-03T22:06:33.420Z,21.9
2019-03-03T22:16:36.920Z,21.9
2019-03-03T22:26:40.409Z,21.8
2019-03-03T22:36:43.957Z,21.8
2019-03-03T22:46:47.546Z,21.8
2019-03-03T22:56:51.012Z,21.7
2019-03-03T23:06:54.538Z,21.7
2019-03-03T23:16:58.037Z,21.7
2019-03-03T23:27:01.545Z,21.6
2019-03-03T23:37:05.085Z,21.6
2019-03-03T23:47:08.585Z,21.5
2019-03-03T23:57:12.114Z,21.5
